Terminal Aerodrome Forecast
Issued by NWS

Home | Current Version | Previous Version | Graphics & Text | Print | Product List | Glossary Off
Versions: 1 2 3 4 5 6 7 8 9 10 11 12 13

000
FTUS41 KCLE 122300
TAFFDY
TAF
KFDY 122330Z 1300/1324 22010KT P6SM SCT050
     FM130800 23010KT P6SM VCTS SCT025 OVC035CB
      TEMPO 1310/1313 3SM TSRA BR SCT015 OVC025CB
     FM131300 23012KT P6SM VCTS BKN035 OVC100CB
     FM131700 26012G20KT P6SM BKN100 OVC200=

USA.gov is the U.S. government's official web portal to all federal, state and local government web resources and services.